COUO2: Red River nr Courtney, OK

                                SHEF ID:       COUO2     Red River nr Courtney, OK
STATION TYPE:

PRECIP ELEVATION STAGE RIV-FLOW BAT-LOAD
in ft ft cfs volt
Ccp-Rev Ccp-Rev Ccp-Rev Ccp-Rev Ccp-Rev
(America/Chicago)
04/28 00:00 ---- ---- 12.51 1887 12.73
04/28 01:00 ---- ---- 12.57 1938 12.73
04/28 02:00 ---- ---- 12.63 1990 12.73
04/28 03:00 ---- ---- 12.66 2016 12.73
04/28 04:00 ---- ---- 12.75 2096 12.65
04/28 05:00 ---- ---- 12.78 2122 12.65
04/28 06:00 ---- ---- 12.83 2167 12.65
04/28 07:00 ---- ---- 12.89 2222 12.65
04/28 08:00 ---- ---- 12.90 2231 12.65
04/28 09:00 ---- ---- 12.94 2268 12.65
04/28 10:00 ---- ---- 13.04 2360 12.65
04/28 11:00 ---- ---- 13.04 2360 13.37
04/28 12:00 ---- ---- 13.04 2360 13.44
04/28 13:00 ---- ---- 13.08 2398 13.53
04/28 14:00 ---- ---- 13.08 2398 13.37
04/28 15:00 ---- ---- 13.11 2427 12.97
04/28 16:00 ---- ---- 13.17 2484 13.37
04/28 17:00 ---- ---- 13.20 2513 13.13
04/28 18:00 ---- ---- 13.24 2551 13.05
04/28 19:00 ---- ---- 13.24 2551 12.97
04/28 20:00 ---- ---- 13.29 2600 12.81
04/28 21:00 ---- ---- 13.33 2639 12.81
04/28 22:00 ---- ---- 13.34 2649 12.81
04/28 23:00 ---- ---- 13.35 2659 12.73
Data processed at Wed 29Apr2026 04:41 GMT

NOTICE: If you are parsing this page

Please convert to using our Data API. Starting early 2026 we will be migrating to: https://water.usace.army.mil with modern pages rendered in JavaScript. When this migration completes you will no longer be able to scrape this page! CWMSDataAPI (CDA)

Timeseries IDs (TSIDs)

TSIDs used from left to right in the data table
COUT.Precip-Inc.Total.1Hour.1Hour.Ccp-Rev
COUT.Stage.Inst.1Hour.0.Ccp-Rev
COUT.Flow.Inst.1Hour.0.Ccp-Rev
COUT.Volt-Battery Load.Inst.1Hour.0.Ccp-Rev

                            

All information presented herein is the property of the government of the United States of America and may be revised or deleted at any time without prior notice. Dissemination of this information without the expressed written consent of the Public Affairs Office, Tulsa District U.S. Army Corps of Engineers is strictly prohibited. These data are gathered electronically and, as presented, have NOT undergone any form of quality control. These data are NOT guaranteed to be valid or correct.